Airfield :
LOGIN :

Register | Disclaimer

   EN    FR    IT 

 










Legend :    VFR   Marginal VFR   IFR   Intensive IFR   Very Intensive IFR
Visi :
Ceiling :
>= 8 km
>= 3000ft
5 to 8 km
1000 to 3000 ft
1500m to 5 km
500 to 1000 ft
800 to 1500m
200 to 500 ft
< 800m
< 200 ft
Symbols :   Thunderstorms  Fog  Heavy snow  Heavy precipitations  Wind > 20 kt
SIGMETs :     Misc.  Thunderstorms  Icing  Turbulence  Mountain Waves  Volcanic Ashes






- Airport Elevation : 56 ft
- IATA code : ILY


EGPI - Islay

CURRENT METAR :
  • 051250Z 13016KT 7000 RA SCT016 SCT021 BKN048 15/14 Q0996

EXPIRED METARs :
  • 051220Z 13016KT 9999 -RA BKN015 15/14 Q0997
  • 051150Z 13017KT 9999 -RA SCT013 15/14 Q0997
  • 051120Z 13020KT 9999 FEW012 SCT018 16/14 Q0997
  • 051050Z 13019KT 9999 FEW010 BKN018 16/14 Q0997
  • 051020Z 13021KT 9999 FEW009 SCT016 15/14 Q0997

TAF TAF EGPI
Valid from the 05 at 12:00 until the 05 at 18:00 UTC


051103Z 0512/0518 13019KT 9999 FEW012 BKN020
TEMPO 0512/0518 14022G32KT 5000 RA SHRA BKN012
PROB30
TEMPO 0512/0518 3000 +RA +SHRA BKN006



MET'MAP, your aeronautical weather chart ! - Copyright ORBIFLY December 2007 - Disclaimer

ORBIFLY MET'MAP TEAM :

Programming & Development : Alexandra Zaïnal
Concept & original design : Baudouin d'Aumeries
Assistance for programming : Marc-Olivier Méhu
Technical & hardware support : Manuel Goepfert

Contact : metmap@orbifly.com




SOURCES & CREDITS :

   NOAA